createdAt,value
2022-11-12T00:01:05.833Z,6.20
2022-11-12T00:05:09.058Z,6.20
2022-11-12T00:09:11.911Z,6.10
2022-11-12T00:13:15.154Z,6.10
2022-11-12T00:17:19.434Z,6.00
2022-11-12T00:21:22.349Z,5.90
2022-11-12T00:25:25.433Z,5.90
2022-11-12T00:29:28.274Z,5.80
2022-11-12T00:33:32.524Z,5.70
2022-11-12T00:37:35.374Z,5.70
2022-11-12T00:41:38.223Z,5.60
2022-11-12T00:45:41.055Z,5.60
2022-11-12T00:49:45.262Z,5.50
2022-11-12T00:53:48.545Z,5.50
2022-11-12T00:57:51.402Z,5.50
2022-11-12T01:01:54.333Z,5.40
2022-11-12T01:06:04.003Z,5.40
2022-11-12T01:10:07.321Z,5.40
2022-11-12T01:14:10.978Z,5.40
2022-11-12T01:18:13.840Z,5.40
2022-11-12T01:22:18.054Z,5.40
2022-11-12T01:26:22.484Z,5.40
2022-11-12T01:30:26.098Z,5.50
2022-11-12T01:34:29.012Z,5.50
2022-11-12T01:38:36.026Z,5.50
2022-11-12T01:42:40.216Z,5.50
2022-11-12T01:46:46.349Z,5.40
2022-11-12T01:50:49.318Z,5.40
2022-11-12T01:54:54.891Z,5.40
2022-11-12T01:59:00.307Z,5.30
2022-11-12T02:03:04.158Z,5.30
2022-11-12T02:07:07.632Z,5.30
2022-11-12T02:11:16.750Z,5.30
2022-11-12T02:15:19.656Z,5.30
2022-11-12T02:19:22.561Z,5.30
2022-11-12T02:23:26.798Z,5.30
2022-11-12T02:27:29.691Z,5.30
2022-11-12T02:31:32.538Z,5.30
2022-11-12T02:35:35.636Z,5.30
2022-11-12T02:39:39.858Z,5.30
2022-11-12T02:43:42.826Z,5.30
2022-11-12T02:47:45.918Z,5.30
2022-11-12T02:51:48.756Z,5.30
2022-11-12T02:55:52.950Z,5.30
2022-11-12T02:59:55.818Z,5.20
2022-11-12T03:03:59.570Z,5.20
2022-11-12T03:08:02.998Z,5.20
2022-11-12T03:12:07.533Z,5.20
2022-11-12T03:16:10.668Z,5.10
2022-11-12T03:20:13.714Z,5.10
2022-11-12T03:24:16.588Z,5.10
2022-11-12T03:28:20.830Z,5.00
2022-11-12T03:36:26.807Z,4.90
2022-11-12T03:40:30.084Z,4.90
2022-11-12T03:44:34.327Z,4.90
2022-11-12T03:48:37.205Z,4.80
2022-11-12T03:52:40.242Z,4.80
2022-11-12T03:56:43.128Z,4.70
2022-11-12T04:00:47.407Z,4.60
2022-11-12T04:05:07.845Z,4.50
2022-11-12T04:09:10.711Z,4.50
2022-11-12T04:13:28.634Z,4.40
2022-11-12T04:17:50.264Z,4.40
2022-11-12T04:21:57.729Z,4.40
2022-11-12T04:26:18.269Z,4.30
2022-11-12T04:30:21.165Z,4.30
2022-11-12T04:34:31.206Z,4.40
2022-11-12T04:38:34.288Z,4.30
2022-11-12T04:42:54.425Z,4.30
2022-11-12T04:46:57.265Z,4.30
2022-11-12T04:51:02.499Z,4.30
2022-11-12T04:55:05.729Z,4.30
2022-11-12T05:03:11.869Z,4.10
2022-11-12T05:07:16.388Z,4.10
2022-11-12T05:11:19.302Z,4.00
2022-11-12T05:15:22.195Z,3.90
2022-11-12T05:19:25.040Z,3.90
2022-11-12T05:23:29.263Z,3.80
2022-11-12T05:27:32.132Z,3.80
2022-11-12T05:31:34.997Z,3.80
2022-11-12T05:35:37.857Z,3.80
2022-11-12T05:39:42.279Z,3.80
2022-11-12T05:43:45.251Z,3.80
2022-11-12T05:47:48.881Z,3.70
2022-11-12T05:51:51.857Z,3.70
2022-11-12T05:55:56.039Z,3.70
2022-11-12T05:59:58.898Z,3.70
2022-11-12T06:04:01.847Z,3.70
2022-11-12T06:08:06.395Z,3.60
2022-11-12T06:12:10.626Z,3.50
2022-11-12T06:20:16.645Z,3.40
2022-11-12T06:24:19.503Z,3.30
2022-11-12T06:28:23.911Z,3.30
2022-11-12T06:32:27.228Z,3.30
2022-11-12T06:36:30.105Z,3.20
2022-11-12T06:40:33.044Z,3.20
2022-11-12T06:44:37.300Z,3.20
2022-11-12T06:48:42.629Z,3.20
2022-11-12T06:52:45.475Z,3.20
2022-11-12T06:56:48.322Z,3.20
2022-11-12T07:00:53.014Z,3.20
2022-11-12T07:04:56.086Z,3.20
2022-11-12T07:09:00.007Z,3.20
2022-11-12T07:13:02.874Z,3.20
2022-11-12T07:17:07.091Z,3.20
2022-11-12T07:21:11.578Z,3.20
2022-11-12T07:25:14.527Z,3.20
2022-11-12T07:29:30.190Z,3.30
2022-11-12T07:33:40.462Z,3.30
2022-11-12T07:37:43.387Z,3.30
2022-11-12T07:41:46.245Z,3.40
2022-11-12T07:45:49.125Z,3.40
2022-11-12T07:49:53.371Z,3.40
2022-11-12T07:53:59.618Z,3.50
2022-11-12T07:58:02.661Z,3.50
2022-11-12T08:02:05.894Z,3.50
2022-11-12T08:06:10.312Z,3.60
2022-11-12T08:10:13.722Z,3.60
2022-11-12T08:14:16.694Z,3.70
2022-11-12T08:18:19.886Z,3.70
2022-11-12T08:22:25.396Z,3.80
2022-11-12T08:26:34.991Z,3.90
2022-11-12T08:30:38.748Z,4.00
2022-11-12T08:34:43.788Z,4.10
2022-11-12T08:38:48.019Z,4.20
2022-11-12T08:42:57.331Z,4.20
2022-11-12T08:47:00.409Z,4.40
2022-11-12T08:51:03.387Z,4.50
2022-11-12T08:55:08.682Z,4.70
2022-11-12T08:59:11.515Z,4.80
2022-11-12T09:03:15.165Z,4.90
2022-11-12T09:07:48.027Z,5.10
2022-11-12T09:11:42.232Z,5.20
2022-11-12T09:15:45.283Z,5.40
2022-11-12T09:19:48.128Z,5.60
2022-11-12T09:23:51.007Z,5.70
2022-11-12T09:27:55.305Z,5.90
2022-11-12T09:31:59.581Z,6.10
2022-11-12T09:36:02.941Z,6.30
2022-11-12T09:40:06.345Z,6.50
2022-11-12T09:44:12.148Z,6.70
2022-11-12T09:48:18.602Z,6.90
2022-11-12T09:52:25.010Z,7.10
2022-11-12T09:56:29.887Z,7.30
2022-11-12T10:00:34.187Z,7.50
2022-11-12T10:04:52.569Z,7.60
2022-11-12T10:08:59.719Z,7.80
2022-11-12T10:13:10.067Z,7.90
2022-11-12T10:17:18.187Z,8.10
2022-11-12T10:21:24.717Z,8.30
2022-11-12T10:25:28.162Z,8.60
2022-11-12T10:29:33.114Z,8.80
2022-11-12T10:33:37.409Z,9.10
2022-11-12T10:37:43.667Z,9.30
2022-11-12T10:41:46.570Z,9.60
2022-11-12T10:45:50.148Z,9.70
2022-11-12T10:50:03.517Z,9.80
2022-11-12T10:54:20.813Z,10.00
2022-11-12T10:58:23.886Z,10.10
2022-11-12T11:02:26.891Z,10.20
2022-11-12T11:06:31.132Z,10.30
2022-11-12T11:10:34.838Z,10.50
2022-11-12T11:14:40.074Z,10.60
2022-11-12T11:18:43.734Z,10.70
2022-11-12T11:22:51.438Z,10.80
2022-11-12T11:26:57.991Z,10.90
2022-11-12T11:31:03.497Z,11.00
2022-11-12T11:35:12.518Z,11.10
2022-11-12T11:39:19.409Z,11.10
2022-11-12T11:43:31.230Z,11.20
2022-11-12T11:47:57.686Z,11.30
2022-11-12T11:52:03.657Z,11.40
2022-11-12T11:56:11.343Z,11.50
2022-11-12T12:00:16.632Z,11.60
2022-11-12T12:04:35.748Z,11.80
2022-11-12T12:08:47.422Z,12.10
2022-11-12T12:12:57.987Z,12.30
2022-11-12T12:17:05.418Z,12.50
2022-11-12T12:21:12.064Z,12.60
2022-11-12T12:25:16.894Z,12.70
2022-11-12T12:29:24.899Z,13.00
2022-11-12T12:33:30.248Z,13.30
2022-11-12T12:37:36.692Z,13.50
2022-11-12T12:41:44.021Z,13.70
2022-11-12T12:45:48.613Z,13.70
2022-11-12T12:49:52.078Z,13.80
2022-11-12T12:53:54.937Z,13.80
2022-11-12T12:57:59.708Z,13.80
2022-11-12T13:02:04.683Z,13.80
2022-11-12T13:06:08.453Z,13.80
2022-11-12T13:10:29.781Z,13.70
2022-11-12T13:14:50.655Z,13.60
2022-11-12T13:19:02.157Z,13.60
2022-11-12T13:23:09.746Z,13.50
2022-11-12T13:27:12.635Z,13.50
2022-11-12T13:31:26.280Z,13.50
2022-11-12T13:35:31.520Z,13.40
2022-11-12T13:39:36.497Z,13.40
2022-11-12T13:43:41.284Z,13.30
2022-11-12T13:47:44.610Z,13.20
2022-11-12T13:51:52.053Z,13.10
2022-11-12T13:55:56.252Z,13.00
2022-11-12T14:00:09.882Z,12.90
2022-11-12T14:04:14.672Z,12.80
2022-11-12T14:08:28.970Z,12.70
2022-11-12T14:12:40.683Z,12.60
2022-11-12T14:16:49.514Z,12.50
2022-11-12T14:20:52.391Z,12.40
2022-11-12T14:25:01.450Z,12.30
2022-11-12T14:29:04.389Z,12.20
2022-11-12T14:33:09.632Z,12.20
2022-11-12T14:37:22.880Z,12.10
2022-11-12T14:41:34.696Z,12.00
2022-11-12T14:45:37.554Z,11.90
2022-11-12T14:49:44.699Z,11.80
2022-11-12T14:53:50.219Z,11.60
2022-11-12T14:57:58.692Z,11.50
2022-11-12T15:06:31.088Z,11.30
2022-11-12T15:10:35.250Z,11.20
2022-11-12T15:14:39.537Z,11.10
2022-11-12T15:18:42.642Z,11.00
2022-11-12T15:22:50.367Z,10.90
2022-11-12T15:26:53.877Z,10.80
2022-11-12T15:31:07.503Z,10.70
2022-11-12T15:35:21.263Z,10.60
2022-11-12T15:39:25.491Z,10.50
2022-11-12T15:43:30.591Z,10.40
2022-11-12T15:47:34.957Z,10.30
2022-11-12T15:51:37.813Z,10.10
2022-11-12T15:55:40.856Z,10.00
2022-11-12T15:59:44.291Z,9.90
2022-11-12T16:03:48.634Z,9.70
2022-11-12T16:07:51.542Z,9.60
2022-11-12T16:11:57.412Z,9.50
2022-11-12T16:16:00.890Z,9.40
2022-11-12T16:20:06.911Z,9.30
2022-11-12T16:24:09.983Z,9.20
2022-11-12T16:28:14.538Z,9.10
2022-11-12T16:32:17.397Z,9.00
2022-11-12T16:36:21.792Z,8.90
2022-11-12T16:40:25.578Z,8.70
2022-11-12T16:44:28.452Z,8.60
2022-11-12T16:48:32.723Z,8.50
2022-11-12T16:52:36.911Z,8.30
2022-11-12T16:56:41.576Z,8.30
2022-11-12T17:00:45.703Z,8.20
2022-11-12T17:04:48.626Z,8.10
2022-11-12T17:08:55.649Z,8.00
2022-11-12T17:12:59.534Z,8.00
2022-11-12T17:17:05.572Z,7.90
2022-11-12T17:21:12.375Z,7.90
2022-11-12T17:25:17.709Z,7.80
2022-11-12T17:29:20.711Z,7.70
2022-11-12T17:33:23.589Z,7.60
2022-11-12T17:37:26.465Z,7.50
2022-11-12T17:41:30.783Z,7.40
2022-11-12T17:45:34.598Z,7.30
2022-11-12T17:49:37.589Z,7.10
2022-11-12T17:53:40.455Z,7.00
2022-11-12T17:57:44.725Z,6.90
2022-11-12T18:01:47.577Z,6.80
2022-11-12T18:05:56.877Z,6.80
2022-11-12T18:10:00.833Z,6.70
2022-11-12T18:14:09.346Z,6.60
2022-11-12T18:18:12.298Z,6.60
2022-11-12T18:22:15.700Z,6.50
2022-11-12T18:26:19.483Z,6.40
2022-11-12T18:30:23.822Z,6.40
2022-11-12T18:34:26.834Z,6.30
2022-11-12T18:38:29.781Z,6.20
2022-11-12T18:42:32.667Z,6.10
2022-11-12T18:46:36.903Z,6.10
2022-11-12T18:50:39.755Z,6.00
2022-11-12T18:54:42.625Z,5.90
2022-11-12T18:58:45.706Z,5.80
2022-11-12T19:02:49.876Z,5.70
2022-11-12T19:06:53.768Z,5.70
2022-11-12T19:11:00.141Z,5.60
2022-11-12T19:15:03.057Z,5.50
2022-11-12T19:19:07.369Z,5.50
2022-11-12T19:23:10.218Z,5.40
2022-11-12T19:27:13.041Z,5.30
2022-11-12T19:31:16.580Z,5.30
2022-11-12T19:35:20.795Z,5.30
2022-11-12T19:39:24.116Z,5.20
2022-11-12T19:43:27.063Z,5.20
2022-11-12T19:47:29.999Z,5.20
2022-11-12T19:51:34.412Z,5.20
2022-11-12T19:55:39.833Z,5.20
2022-11-12T19:59:43.119Z,5.20
2022-11-12T20:03:46.440Z,5.20
2022-11-12T20:07:50.808Z,5.20
2022-11-12T20:11:54.169Z,5.20
2022-11-12T20:15:57.065Z,5.20
2022-11-12T20:20:00.705Z,5.20
2022-11-12T20:24:05.093Z,5.30
2022-11-12T20:28:08.019Z,5.30
2022-11-12T20:32:10.866Z,5.30
2022-11-12T20:36:14.685Z,5.30
2022-11-12T20:40:19.018Z,5.30
2022-11-12T20:44:21.935Z,5.30
2022-11-12T20:48:25.056Z,5.30
2022-11-12T20:52:28.060Z,5.30
2022-11-12T20:56:32.586Z,5.30
2022-11-12T21:00:35.505Z,5.30
2022-11-12T21:04:38.437Z,5.30
2022-11-12T21:08:41.326Z,5.30
2022-11-12T21:12:45.551Z,5.30
2022-11-12T21:16:48.666Z,5.30
2022-11-12T21:20:52.625Z,5.30
2022-11-12T21:24:55.485Z,5.30
2022-11-12T21:28:59.734Z,5.30
2022-11-12T21:33:02.560Z,5.30
2022-11-12T21:37:05.438Z,5.30
2022-11-12T21:41:08.902Z,5.30
2022-11-12T21:45:13.769Z,5.30
2022-11-12T21:49:16.641Z,5.20
2022-11-12T21:53:19.486Z,5.20
2022-11-12T21:57:22.371Z,5.20
2022-11-12T22:01:26.818Z,5.10
2022-11-12T22:05:29.739Z,5.10
2022-11-12T22:09:32.609Z,5.10
2022-11-12T22:13:35.921Z,5.00
2022-11-12T22:17:40.151Z,5.00
2022-11-12T22:21:43.249Z,5.00
2022-11-12T22:25:48.387Z,5.00
2022-11-12T22:29:51.886Z,5.00
2022-11-12T22:33:57.122Z,5.00
2022-11-12T22:37:59.953Z,5.00
2022-11-12T22:42:02.835Z,5.00
2022-11-12T22:46:06.395Z,5.00
2022-11-12T22:50:11.308Z,4.90
2022-11-12T22:54:21.463Z,4.90
2022-11-12T22:58:24.770Z,4.90
2022-11-12T23:02:29.310Z,4.90
2022-11-12T23:06:33.708Z,4.90
2022-11-12T23:10:38.490Z,4.90
2022-11-12T23:14:44.594Z,4.90
2022-11-12T23:18:47.924Z,4.90
2022-11-12T23:22:52.439Z,4.90
2022-11-12T23:26:55.328Z,4.90
2022-11-12T23:30:58.476Z,4.80
2022-11-12T23:35:01.568Z,4.80
2022-11-12T23:39:05.917Z,4.80
2022-11-12T23:43:08.823Z,4.80
2022-11-12T23:47:11.679Z,4.80
2022-11-12T23:51:15.734Z,4.80
2022-11-12T23:55:19.981Z,4.70
2022-11-12T23:59:22.798Z,4.70
